createdAt,value
2017-11-17T00:00:37.851Z,8.33
2017-11-17T00:01:37.855Z,8.20
2017-11-17T00:02:37.754Z,8.20
2017-11-17T00:03:37.719Z,8.24
2017-11-17T00:04:37.670Z,8.13
2017-11-17T00:05:37.625Z,8.24
2017-11-17T00:06:37.591Z,8.28
2017-11-17T00:07:37.552Z,8.33
2017-11-17T00:08:37.507Z,8.36
2017-11-17T00:09:37.465Z,8.24
2017-11-17T00:10:37.452Z,8.20
2017-11-17T00:11:37.399Z,8.26
2017-11-17T00:12:37.356Z,8.24
2017-11-17T00:13:37.317Z,8.16
2017-11-17T00:14:37.282Z,8.31
2017-11-17T00:15:37.235Z,8.26
2017-11-17T00:16:37.195Z,8.38
2017-11-17T00:17:37.156Z,8.30
2017-11-17T00:18:37.130Z,8.28
2017-11-17T00:19:37.103Z,8.33
2017-11-17T00:20:37.043Z,8.28
2017-11-17T00:21:37.025Z,8.20
2017-11-17T00:22:36.961Z,8.30
2017-11-17T00:23:36.933Z,8.33
2017-11-17T00:24:36.906Z,8.28
2017-11-17T00:25:36.858Z,8.28
2017-11-17T00:26:36.815Z,8.37
2017-11-17T00:27:36.768Z,8.45
2017-11-17T00:28:36.729Z,8.42
2017-11-17T00:29:36.693Z,8.42
2017-11-17T00:30:36.653Z,8.37
2017-11-17T00:31:36.612Z,8.48
2017-11-17T00:32:36.572Z,8.46
2017-11-17T00:33:36.541Z,8.52
2017-11-17T00:34:36.494Z,8.56
2017-11-17T00:35:36.463Z,8.53
2017-11-17T00:36:36.419Z,8.60
2017-11-17T00:37:36.375Z,8.58
2017-11-17T00:38:36.343Z,8.63
2017-11-17T00:39:36.305Z,8.60
2017-11-17T00:40:36.261Z,8.64
2017-11-17T00:41:36.252Z,8.60
2017-11-17T00:42:36.189Z,8.71
2017-11-17T00:43:36.153Z,8.70
2017-11-17T00:44:36.115Z,8.74
2017-11-17T00:45:36.069Z,8.74
2017-11-17T00:46:36.028Z,8.71
2017-11-17T00:47:35.994Z,8.71
2017-11-17T00:48:35.955Z,8.64
2017-11-17T00:49:35.933Z,8.66
2017-11-17T00:50:35.884Z,8.78
2017-11-17T00:51:35.841Z,8.67
2017-11-17T00:52:35.796Z,8.79
2017-11-17T00:53:35.764Z,8.67
2017-11-17T00:54:35.726Z,8.74
2017-11-17T00:55:35.683Z,8.82
2017-11-17T00:56:35.649Z,8.73
2017-11-17T00:57:35.613Z,8.71
2017-11-17T00:58:35.566Z,8.71
2017-11-17T00:59:35.525Z,8.79
2017-11-17T01:00:35.494Z,8.76
2017-11-17T01:01:35.453Z,8.73
2017-11-17T01:02:35.416Z,8.71
2017-11-17T01:03:35.376Z,8.63
2017-11-17T01:04:35.332Z,8.56
2017-11-17T01:05:35.305Z,8.56
2017-11-17T01:06:35.276Z,8.61
2017-11-17T01:07:36.132Z,8.63
2017-11-17T01:08:35.207Z,8.63
2017-11-17T01:09:35.143Z,8.64
2017-11-17T01:10:35.117Z,8.70
2017-11-17T01:11:35.059Z,8.74
2017-11-17T01:12:35.029Z,8.76
2017-11-17T01:13:34.982Z,8.78
2017-11-17T01:14:34.946Z,8.78
2017-11-17T01:15:34.913Z,8.79
2017-11-17T01:16:34.867Z,8.79
2017-11-17T01:17:34.830Z,8.84
2017-11-17T01:18:34.790Z,8.81
2017-11-17T01:19:34.752Z,8.78
2017-11-17T01:20:34.712Z,8.84
2017-11-17T01:21:34.682Z,8.87
2017-11-17T01:22:34.636Z,8.81
2017-11-17T01:23:34.624Z,8.73
2017-11-17T01:24:34.555Z,8.81
2017-11-17T01:25:34.525Z,8.87
2017-11-17T01:26:34.481Z,8.81
2017-11-17T01:27:34.440Z,8.81
2017-11-17T01:28:34.404Z,8.81
2017-11-17T01:29:34.364Z,8.81
2017-11-17T01:30:34.352Z,8.79
2017-11-17T01:31:34.286Z,8.76
2017-11-17T01:32:34.248Z,8.67
2017-11-17T01:33:34.217Z,8.66
2017-11-17T01:34:34.168Z,8.64
2017-11-17T01:35:34.132Z,8.60
2017-11-17T01:36:34.091Z,8.63
2017-11-17T01:37:34.053Z,8.63
2017-11-17T01:38:34.032Z,8.64
2017-11-17T01:39:33.984Z,8.66
2017-11-17T01:40:33.948Z,8.56
2017-11-17T01:41:33.904Z,8.58
2017-11-17T01:42:33.863Z,8.64
2017-11-17T01:43:33.825Z,8.63
2017-11-17T01:44:33.782Z,8.60
2017-11-17T01:45:33.756Z,8.64
2017-11-17T01:46:33.741Z,8.66
2017-11-17T01:47:33.680Z,8.61
2017-11-17T01:48:33.640Z,8.58
2017-11-17T01:49:33.599Z,8.66
2017-11-17T01:50:33.553Z,8.55
2017-11-17T01:51:33.523Z,8.53
2017-11-17T01:52:33.485Z,8.56
2017-11-17T01:53:33.434Z,8.53
2017-11-17T01:54:33.398Z,8.63
2017-11-17T01:55:33.359Z,8.58
2017-11-17T01:56:33.318Z,8.53
2017-11-17T01:57:33.284Z,8.58
2017-11-17T01:58:33.249Z,8.60
2017-11-17T01:59:33.201Z,8.53
2017-11-17T02:00:33.161Z,8.56
2017-11-17T02:01:33.126Z,8.56
2017-11-17T02:02:33.093Z,8.49
2017-11-17T02:03:33.050Z,8.52
2017-11-17T02:04:33.007Z,8.55
2017-11-17T02:05:32.970Z,8.52
2017-11-17T02:06:32.940Z,8.63
2017-11-17T02:07:32.906Z,8.56
2017-11-17T02:08:32.852Z,8.53
2017-11-17T02:09:32.818Z,8.48
2017-11-17T02:10:32.782Z,8.55
2017-11-17T02:11:32.736Z,8.53
2017-11-17T02:12:32.705Z,8.46
2017-11-17T02:13:32.661Z,8.51
2017-11-17T02:14:32.621Z,8.58
2017-11-17T02:15:32.582Z,8.60
2017-11-17T02:16:32.548Z,8.61
2017-11-17T02:17:32.507Z,8.56
2017-11-17T02:18:32.487Z,8.53
2017-11-17T02:19:32.430Z,8.53
2017-11-17T02:20:32.386Z,8.53
2017-11-17T02:21:32.347Z,8.51
2017-11-17T02:22:32.317Z,8.53
2017-11-17T02:23:32.270Z,8.58
2017-11-17T02:24:32.242Z,8.63
2017-11-17T02:25:32.206Z,8.67
2017-11-17T02:26:32.155Z,8.52
2017-11-17T02:27:32.126Z,8.56
2017-11-17T02:28:32.078Z,8.63
2017-11-17T02:29:32.037Z,8.58
2017-11-17T02:30:32.000Z,8.61
2017-11-17T02:31:31.964Z,8.63
2017-11-17T02:32:31.922Z,8.64
2017-11-17T02:33:31.911Z,8.61
2017-11-17T02:34:31.850Z,8.64
2017-11-17T02:35:31.806Z,8.61
2017-11-17T02:36:31.772Z,8.67
2017-11-17T02:37:31.734Z,8.61
2017-11-17T02:38:31.690Z,8.63
2017-11-17T02:39:31.650Z,8.53
2017-11-17T02:40:31.614Z,8.60
2017-11-17T02:41:31.572Z,8.61
2017-11-17T02:42:31.539Z,8.56
2017-11-17T02:43:31.510Z,8.61
2017-11-17T02:44:31.459Z,8.66
2017-11-17T02:45:31.419Z,8.66
2017-11-17T02:46:31.382Z,8.61
2017-11-17T02:47:31.340Z,8.45
2017-11-17T02:48:31.300Z,8.42
2017-11-17T02:49:31.280Z,8.52
2017-11-17T02:50:31.233Z,8.53
2017-11-17T02:51:31.185Z,8.56
2017-11-17T02:52:31.151Z,8.51
2017-11-17T02:53:31.113Z,8.56
2017-11-17T02:54:31.072Z,8.45
2017-11-17T02:55:31.030Z,8.58
2017-11-17T02:56:30.998Z,8.58
2017-11-17T02:57:30.956Z,8.61
2017-11-17T02:58:30.917Z,8.58
2017-11-17T02:59:30.904Z,8.56
2017-11-17T03:00:30.837Z,8.64
2017-11-17T03:01:30.812Z,8.63
2017-11-17T03:02:30.760Z,8.64
2017-11-17T03:03:30.723Z,8.60
2017-11-17T03:04:30.684Z,8.64
2017-11-17T03:05:30.657Z,8.61
2017-11-17T03:06:30.604Z,8.33
2017-11-17T03:07:30.564Z,8.55
2017-11-17T03:08:30.526Z,8.55
2017-11-17T03:09:30.489Z,8.55
2017-11-17T03:10:30.450Z,8.60
2017-11-17T03:11:30.415Z,8.66
2017-11-17T03:12:30.373Z,8.66
2017-11-17T03:13:30.338Z,8.69
2017-11-17T03:14:30.298Z,8.70
2017-11-17T03:15:30.260Z,8.69
2017-11-17T03:16:30.220Z,8.64
2017-11-17T03:17:30.182Z,8.64
2017-11-17T03:18:30.149Z,8.64
2017-11-17T03:19:30.105Z,8.69
2017-11-17T03:20:30.067Z,8.67
2017-11-17T03:21:30.025Z,8.63
2017-11-17T03:22:29.986Z,8.69
2017-11-17T03:23:29.951Z,8.64
2017-11-17T03:24:29.906Z,8.69
2017-11-17T03:25:29.877Z,8.76
2017-11-17T03:26:29.827Z,8.73
2017-11-17T03:27:29.797Z,8.67
2017-11-17T03:28:29.757Z,8.69
2017-11-17T03:29:29.723Z,8.64
2017-11-17T03:30:29.681Z,8.79
2017-11-17T03:31:29.645Z,8.78
2017-11-17T03:32:29.601Z,8.70
2017-11-17T03:33:29.569Z,8.67
2017-11-17T03:34:29.519Z,8.67
2017-11-17T03:35:29.482Z,8.61
2017-11-17T03:36:29.442Z,8.55
2017-11-17T03:37:29.408Z,8.63
2017-11-17T03:38:29.370Z,8.63
2017-11-17T03:39:29.332Z,8.64
2017-11-17T03:40:29.289Z,8.64
2017-11-17T03:41:29.250Z,8.51
2017-11-17T03:42:29.210Z,8.64
2017-11-17T03:43:29.173Z,8.52
2017-11-17T03:44:29.134Z,8.52
2017-11-17T03:45:29.097Z,8.53
2017-11-17T03:46:29.059Z,8.58
2017-11-17T03:47:29.022Z,8.53
2017-11-17T03:48:28.978Z,8.66
2017-11-17T03:49:28.937Z,8.64
2017-11-17T03:50:28.903Z,8.70
2017-11-17T03:51:28.859Z,8.64
2017-11-17T03:52:28.819Z,8.67
2017-11-17T03:53:28.784Z,8.56
2017-11-17T03:54:28.743Z,8.49
2017-11-17T03:55:28.710Z,8.48
2017-11-17T03:56:28.673Z,8.48
2017-11-17T03:57:28.628Z,8.55
2017-11-17T03:58:28.590Z,8.45
2017-11-17T03:59:28.560Z,8.48
2017-11-17T04:00:28.515Z,8.45
2017-11-17T04:01:28.473Z,8.49
2017-11-17T04:02:28.435Z,8.45
2017-11-17T04:03:28.398Z,8.38
2017-11-17T04:04:28.363Z,8.24
2017-11-17T04:05:28.322Z,8.36
2017-11-17T04:06:28.279Z,8.34
2017-11-17T04:07:28.240Z,8.41
2017-11-17T04:08:28.209Z,8.45
2017-11-17T04:09:28.164Z,8.36
2017-11-17T04:10:28.127Z,8.38
2017-11-17T04:11:28.086Z,8.34
2017-11-17T04:12:28.078Z,8.38
2017-11-17T04:13:28.013Z,8.46
2017-11-17T04:14:27.974Z,8.46
2017-11-17T04:15:27.931Z,8.45
2017-11-17T04:16:27.891Z,8.41
2017-11-17T04:17:27.862Z,8.41
2017-11-17T04:18:27.818Z,8.49
2017-11-17T04:19:27.779Z,8.48
2017-11-17T04:20:27.742Z,8.48
2017-11-17T04:21:27.704Z,8.49
2017-11-17T04:22:27.684Z,8.48
2017-11-17T04:23:27.638Z,8.48
2017-11-17T04:24:27.578Z,8.36
2017-11-17T04:25:27.541Z,8.30
2017-11-17T04:26:27.517Z,8.42
2017-11-17T04:27:27.469Z,8.44
2017-11-17T04:28:27.426Z,8.46
2017-11-17T04:29:27.385Z,8.51
2017-11-17T04:30:27.348Z,8.44
2017-11-17T04:31:27.306Z,8.55
2017-11-17T04:32:27.268Z,8.58
2017-11-17T04:33:27.231Z,8.48
2017-11-17T04:34:27.195Z,8.49
2017-11-17T04:35:27.198Z,8.51
2017-11-17T04:36:27.113Z,8.45
2017-11-17T04:37:27.075Z,8.44
2017-11-17T04:38:27.033Z,8.56
2017-11-17T04:39:26.997Z,8.51
2017-11-17T04:40:27.085Z,8.48
2017-11-17T04:41:26.918Z,8.55
2017-11-17T04:42:26.880Z,8.60
2017-11-17T04:43:26.858Z,8.56
2017-11-17T04:44:26.809Z,8.58
2017-11-17T04:45:26.759Z,8.55
2017-11-17T04:46:26.728Z,8.67
2017-11-17T04:47:26.685Z,8.63
2017-11-17T04:48:26.642Z,8.63
2017-11-17T04:49:26.606Z,8.69
2017-11-17T04:50:26.567Z,8.63
2017-11-17T04:51:26.535Z,8.70
2017-11-17T04:52:26.490Z,8.55
2017-11-17T04:53:26.451Z,8.63
2017-11-17T04:54:26.411Z,8.66
2017-11-17T04:55:26.386Z,8.69
2017-11-17T04:56:26.334Z,8.67
2017-11-17T04:57:26.298Z,8.60
2017-11-17T04:58:26.259Z,8.45
2017-11-17T04:59:26.216Z,8.49
2017-11-17T05:00:26.185Z,8.53
2017-11-17T05:01:26.148Z,8.48
2017-11-17T05:02:26.100Z,8.58
2017-11-17T05:03:26.061Z,8.55
2017-11-17T05:04:26.037Z,8.61
2017-11-17T05:05:26.014Z,8.52
2017-11-17T05:06:25.945Z,8.41
2017-11-17T05:07:25.923Z,8.46
2017-11-17T05:08:25.868Z,8.45
2017-11-17T05:09:25.828Z,8.45
2017-11-17T05:10:25.790Z,8.46
2017-11-17T05:11:25.754Z,8.46
2017-11-17T05:12:25.711Z,8.44
2017-11-17T05:13:25.670Z,8.45
2017-11-17T05:14:25.633Z,8.44
2017-11-17T05:15:25.599Z,8.42
2017-11-17T05:16:25.601Z,8.42
2017-11-17T05:17:25.521Z,8.44
2017-11-17T05:18:25.476Z,8.36
2017-11-17T05:19:25.437Z,8.38
2017-11-17T05:20:25.406Z,8.27
2017-11-17T05:21:25.361Z,8.38
2017-11-17T05:22:25.323Z,8.37
2017-11-17T05:23:25.282Z,8.31
2017-11-17T05:24:25.255Z,8.42
2017-11-17T05:25:25.201Z,8.27
2017-11-17T05:26:25.163Z,8.34
2017-11-17T05:27:25.139Z,8.37
2017-11-17T05:28:25.081Z,8.51
2017-11-17T05:29:25.041Z,8.44
2017-11-17T05:30:25.013Z,8.28
2017-11-17T05:31:24.967Z,8.41
2017-11-17T05:32:24.934Z,8.38
2017-11-17T05:33:24.888Z,8.49
2017-11-17T05:34:24.849Z,8.52
2017-11-17T05:35:24.827Z,8.61
2017-11-17T05:36:24.769Z,8.61
2017-11-17T05:37:24.738Z,8.55
2017-11-17T05:38:24.705Z,8.46
2017-11-17T05:39:24.670Z,8.46
2017-11-17T05:40:24.619Z,8.49
2017-11-17T05:41:24.571Z,8.52
2017-11-17T05:42:24.534Z,8.34
2017-11-17T05:43:24.499Z,8.44
2017-11-17T05:44:24.491Z,8.45
2017-11-17T05:45:24.417Z,8.53
2017-11-17T05:46:24.376Z,8.49
2017-11-17T05:47:24.340Z,8.38
2017-11-17T05:48:24.298Z,8.26
2017-11-17T05:49:24.259Z,8.23
2017-11-17T05:50:24.230Z,8.27
2017-11-17T05:51:24.181Z,8.18
2017-11-17T05:52:24.140Z,8.24
2017-11-17T05:53:24.102Z,8.23
2017-11-17T05:54:24.062Z,8.18
2017-11-17T05:55:24.022Z,8.12
2017-11-17T05:56:23.985Z,8.19
2017-11-17T05:57:23.945Z,8.23
2017-11-17T05:58:23.903Z,8.13
2017-11-17T05:59:23.865Z,8.18
2017-11-17T06:00:23.831Z,8.16
2017-11-17T06:01:23.792Z,8.24
2017-11-17T06:02:23.751Z,8.20
2017-11-17T06:03:23.707Z,8.06
2017-11-17T06:04:23.669Z,8.16
2017-11-17T06:05:23.630Z,8.09
2017-11-17T06:06:23.594Z,8.06
2017-11-17T06:07:23.549Z,8.06
2017-11-17T06:08:23.510Z,8.06
2017-11-17T06:09:23.470Z,8.06
2017-11-17T06:10:23.440Z,8.09
2017-11-17T06:11:23.392Z,8.09
2017-11-17T06:12:23.356Z,8.24
2017-11-17T06:13:23.314Z,8.10
2017-11-17T06:14:23.279Z,8.12
2017-11-17T06:15:23.231Z,8.13
2017-11-17T06:16:23.191Z,8.06
2017-11-17T06:17:23.154Z,8.13
2017-11-17T06:18:23.124Z,8.06
2017-11-17T06:19:23.075Z,8.06
2017-11-17T06:20:23.039Z,8.09
2017-11-17T06:21:22.997Z,8.09
2017-11-17T06:22:22.967Z,8.03
2017-11-17T06:23:22.919Z,8.08
2017-11-17T06:24:22.885Z,8.03
2017-11-17T06:25:22.844Z,8.03
2017-11-17T06:26:22.804Z,8.00
2017-11-17T06:27:22.830Z,7.97
2017-11-17T06:28:22.755Z,7.98
2017-11-17T06:29:22.687Z,8.00
2017-11-17T06:30:22.673Z,8.05
2017-11-17T06:31:22.610Z,8.01
2017-11-17T06:32:22.569Z,7.97
2017-11-17T06:33:22.528Z,7.83
2017-11-17T06:34:22.518Z,7.82
2017-11-17T06:35:22.469Z,7.85
2017-11-17T06:36:22.414Z,7.93
2017-11-17T06:37:22.367Z,7.94
2017-11-17T06:38:22.328Z,7.95
2017-11-17T06:39:22.290Z,7.88
2017-11-17T06:40:22.246Z,7.97
2017-11-17T06:41:22.211Z,7.97
2017-11-17T06:42:22.172Z,7.85
2017-11-17T06:43:22.130Z,7.90
2017-11-17T06:44:22.104Z,7.93
2017-11-17T06:45:22.057Z,7.85
2017-11-17T06:46:22.713Z,7.82
2017-11-17T06:47:21.972Z,7.79
2017-11-17T06:48:21.951Z,7.70
2017-11-17T06:49:21.888Z,7.83
2017-11-17T06:50:21.858Z,7.72
2017-11-17T06:51:21.815Z,7.75
2017-11-17T06:52:21.772Z,7.90
2017-11-17T06:53:21.735Z,7.85
2017-11-17T06:54:21.698Z,7.85
2017-11-17T06:55:21.659Z,7.77
2017-11-17T06:56:21.613Z,7.76
2017-11-17T06:57:21.575Z,7.73
2017-11-17T06:58:21.533Z,7.67
2017-11-17T06:59:21.510Z,7.69
2017-11-17T07:00:21.468Z,7.79
2017-11-17T07:01:21.416Z,7.72
2017-11-17T07:02:21.375Z,7.66
2017-11-17T07:03:21.345Z,7.51
2017-11-17T07:04:21.298Z,7.57
2017-11-17T07:05:21.258Z,7.72
2017-11-17T07:06:21.213Z,7.66
2017-11-17T07:07:21.181Z,7.69
2017-11-17T07:08:21.140Z,7.66
2017-11-17T07:09:21.094Z,7.61
2017-11-17T07:10:21.105Z,7.72
2017-11-17T07:11:21.019Z,7.69
2017-11-17T07:12:21.000Z,7.63
2017-11-17T07:13:20.942Z,7.61
2017-11-17T07:14:20.905Z,7.69
2017-11-17T07:15:20.864Z,7.76
2017-11-17T07:16:20.827Z,7.63
2017-11-17T07:17:20.789Z,7.63
2017-11-17T07:18:20.742Z,7.63
2017-11-17T07:19:20.703Z,7.69
2017-11-17T07:20:20.661Z,7.63
2017-11-17T07:21:20.625Z,7.75
2017-11-17T07:22:20.641Z,7.72
2017-11-17T07:23:20.572Z,7.75
2017-11-17T07:24:20.498Z,7.66
2017-11-17T07:25:20.460Z,7.73
2017-11-17T07:26:20.424Z,7.67
2017-11-17T07:27:20.395Z,7.73
2017-11-17T07:28:20.399Z,7.72
2017-11-17T07:29:20.302Z,7.72
2017-11-17T07:30:20.289Z,7.66
2017-11-17T07:31:20.257Z,7.70
2017-11-17T07:32:20.200Z,7.66
2017-11-17T07:33:20.146Z,7.77
2017-11-17T07:34:20.171Z,7.72
2017-11-17T07:35:20.064Z,7.79
2017-11-17T07:36:20.069Z,7.72
2017-11-17T07:37:19.995Z,7.75
2017-11-17T07:38:20.070Z,7.77
2017-11-17T07:39:19.926Z,7.73
2017-11-17T07:40:19.916Z,7.69
2017-11-17T07:41:19.828Z,7.73
2017-11-17T07:42:19.795Z,7.66
2017-11-17T07:43:19.753Z,7.57
2017-11-17T07:44:19.715Z,7.61
2017-11-17T07:45:19.667Z,7.60
2017-11-17T07:46:19.626Z,7.69
2017-11-17T07:47:19.588Z,7.70
2017-11-17T07:48:19.547Z,7.66
2017-11-17T07:49:19.509Z,7.83
2017-11-17T07:50:19.473Z,7.80
2017-11-17T07:51:19.429Z,7.77
2017-11-17T07:52:19.391Z,7.60
2017-11-17T07:53:19.358Z,7.69
2017-11-17T07:54:19.314Z,7.80
2017-11-17T07:55:19.313Z,7.73
2017-11-17T07:56:19.238Z,7.76
2017-11-17T07:57:19.203Z,7.87
2017-11-17T07:58:19.156Z,7.87
2017-11-17T07:59:19.117Z,7.77
2017-11-17T08:00:19.110Z,7.85
2017-11-17T08:01:19.040Z,7.98
2017-11-17T08:02:19.015Z,7.83
2017-11-17T08:03:18.960Z,7.80
2017-11-17T08:04:18.919Z,7.85
2017-11-17T08:05:18.881Z,7.87
2017-11-17T08:06:18.843Z,7.80
2017-11-17T08:07:18.821Z,7.83
2017-11-17T08:08:18.786Z,7.75
2017-11-17T08:09:18.720Z,7.77
2017-11-17T08:10:18.683Z,7.80
2017-11-17T08:11:18.644Z,7.72
2017-11-17T08:12:18.599Z,7.73
2017-11-17T08:13:18.558Z,7.76
2017-11-17T08:14:18.533Z,7.79
2017-11-17T08:15:18.539Z,8.01
2017-11-17T08:16:18.443Z,7.76
2017-11-17T08:17:18.418Z,7.82
2017-11-17T08:18:18.404Z,7.95
2017-11-17T08:19:18.330Z,7.94
2017-11-17T08:20:18.286Z,7.80
2017-11-17T08:21:18.246Z,7.79
2017-11-17T08:22:18.203Z,7.82
2017-11-17T08:23:18.164Z,7.77
2017-11-17T08:24:18.167Z,7.88
2017-11-17T08:25:18.091Z,7.95
2017-11-17T08:26:18.055Z,8.08
2017-11-17T08:27:18.015Z,8.13
2017-11-17T08:28:18.765Z,8.24
2017-11-17T08:29:17.947Z,8.06
2017-11-17T08:30:17.886Z,8.12
2017-11-17T08:31:17.877Z,8.13
2017-11-17T08:32:17.814Z,8.06
2017-11-17T08:33:19.733Z,8.06
2017-11-17T08:34:17.768Z,8.06
2017-11-17T08:35:17.707Z,8.06
2017-11-17T08:36:17.652Z,8.09
2017-11-17T08:37:17.620Z,8.12
2017-11-17T08:38:19.218Z,8.19
2017-11-17T08:39:17.540Z,8.23
2017-11-17T08:40:17.493Z,8.20
2017-11-17T08:41:17.474Z,8.03
2017-11-17T08:42:17.416Z,8.16
2017-11-17T08:43:20.263Z,8.20
2017-11-17T08:44:17.356Z,8.13
2017-11-17T08:45:17.295Z,8.08
2017-11-17T08:46:20.846Z,8.16
2017-11-17T08:47:19.232Z,8.28
2017-11-17T08:48:18.735Z,8.28
2017-11-17T08:49:17.136Z,8.34
2017-11-17T08:50:17.736Z,8.28
2017-11-17T08:51:21.811Z,8.27
2017-11-17T08:52:17.026Z,8.45
2017-11-17T08:53:16.981Z,8.46
2017-11-17T08:54:16.952Z,8.49
2017-11-17T08:55:16.910Z,8.56
2017-11-17T08:56:16.861Z,8.58
2017-11-17T08:57:16.832Z,8.63
2017-11-17T08:58:16.790Z,8.61
2017-11-17T08:59:16.755Z,8.61
2017-11-17T09:00:16.702Z,8.63
2017-11-17T09:01:16.667Z,8.69
2017-11-17T09:02:16.629Z,8.69
2017-11-17T09:03:16.585Z,8.63
2017-11-17T09:04:16.548Z,8.37
2017-11-17T09:05:16.513Z,8.38
2017-11-17T09:06:16.469Z,8.58
2017-11-17T09:07:16.453Z,8.64
2017-11-17T09:08:16.411Z,8.53
2017-11-17T09:09:16.357Z,8.51
2017-11-17T09:10:16.324Z,8.38
2017-11-17T09:11:16.277Z,8.20
2017-11-17T09:12:16.241Z,8.28
2017-11-17T09:13:16.201Z,8.42
2017-11-17T09:14:16.156Z,8.41
2017-11-17T09:15:16.127Z,8.19
2017-11-17T09:16:16.097Z,8.18
2017-11-17T09:17:16.043Z,8.18
2017-11-17T09:18:16.024Z,8.12
2017-11-17T09:19:15.968Z,8.06
2017-11-17T09:20:15.931Z,8.15
2017-11-17T09:21:15.882Z,8.19
2017-11-17T09:22:15.845Z,8.23
2017-11-17T09:23:15.809Z,8.38
2017-11-17T09:24:15.766Z,8.36
2017-11-17T09:25:15.726Z,8.38
2017-11-17T09:26:15.691Z,8.31
2017-11-17T09:27:15.653Z,8.34
2017-11-17T09:28:15.640Z,8.33
2017-11-17T09:29:15.571Z,8.30
2017-11-17T09:30:15.536Z,8.44
2017-11-17T09:31:15.492Z,8.42
2017-11-17T09:32:15.452Z,8.45
2017-11-17T09:33:15.413Z,8.53
2017-11-17T09:34:15.391Z,8.45
2017-11-17T09:35:15.337Z,8.41
2017-11-17T09:36:16.242Z,8.44
2017-11-17T09:37:15.259Z,8.51
2017-11-17T09:38:15.233Z,8.49
2017-11-17T09:39:15.184Z,8.56
2017-11-17T09:40:15.147Z,8.56
2017-11-17T09:41:15.120Z,8.61
2017-11-17T09:42:15.063Z,8.63
2017-11-17T09:43:15.046Z,8.81
2017-11-17T09:44:16.724Z,8.71
2017-11-17T09:45:14.944Z,8.84
2017-11-17T09:46:14.902Z,8.81
2017-11-17T09:47:14.867Z,8.76
2017-11-17T09:48:14.841Z,8.78
2017-11-17T09:49:14.796Z,8.85
2017-11-17T09:50:14.750Z,8.81
2017-11-17T09:51:14.727Z,8.92
2017-11-17T09:52:14.671Z,8.94
2017-11-17T09:53:14.632Z,8.82
2017-11-17T09:54:14.591Z,8.95
2017-11-17T09:55:14.574Z,9.02
2017-11-17T09:56:14.519Z,9.04
2017-11-17T09:57:14.477Z,8.97
2017-11-17T09:58:14.455Z,9.02
2017-11-17T09:59:14.402Z,8.95
2017-11-17T10:00:14.364Z,8.92
2017-11-17T10:01:14.319Z,8.81
2017-11-17T10:02:14.283Z,8.92
2017-11-17T10:03:14.262Z,8.99
2017-11-17T10:04:14.201Z,8.99
2017-11-17T10:05:14.189Z,8.99
2017-11-17T10:06:14.214Z,9.04
2017-11-17T10:07:18.726Z,9.21
2017-11-17T10:08:14.069Z,9.31
2017-11-17T10:09:14.018Z,9.36
2017-11-17T10:10:13.969Z,9.34
2017-11-17T10:11:14.745Z,9.22
2017-11-17T10:12:13.897Z,9.43
2017-11-17T10:13:13.880Z,9.40
2017-11-17T10:14:13.816Z,9.18
2017-11-17T10:15:14.754Z,9.21
2017-11-17T10:16:13.754Z,9.29
2017-11-17T10:17:13.701Z,9.39
2017-11-17T10:18:13.664Z,9.36
2017-11-17T10:19:13.620Z,9.37
2017-11-17T10:20:14.252Z,9.43
2017-11-17T10:21:13.549Z,9.40
2017-11-17T10:22:13.524Z,9.29
2017-11-17T10:23:13.473Z,9.31
2017-11-17T10:24:13.454Z,9.29
2017-11-17T10:25:13.390Z,9.36
2017-11-17T10:26:14.253Z,9.40
2017-11-17T10:27:13.313Z,9.56
2017-11-17T10:28:13.300Z,9.51
2017-11-17T10:29:14.249Z,9.48
2017-11-17T10:30:13.197Z,9.50
2017-11-17T10:31:13.183Z,9.50
2017-11-17T10:32:13.135Z,9.48
2017-11-17T10:33:13.092Z,9.50
2017-11-17T10:34:13.063Z,9.48
2017-11-17T10:35:13.012Z,9.46
2017-11-17T10:36:12.971Z,9.41
2017-11-17T10:37:12.926Z,9.44
2017-11-17T10:38:12.898Z,9.46
2017-11-17T10:39:12.861Z,9.48
2017-11-17T10:40:12.818Z,9.56
2017-11-17T10:41:12.792Z,9.58
2017-11-17T10:42:12.746Z,9.59
2017-11-17T10:43:12.741Z,9.61
2017-11-17T10:44:12.663Z,9.55
2017-11-17T10:45:12.621Z,9.56
2017-11-17T10:46:12.591Z,9.62
2017-11-17T10:47:12.571Z,9.59
2017-11-17T10:48:13.262Z,9.59
2017-11-17T10:49:12.472Z,9.55
2017-11-17T10:50:12.446Z,9.55
2017-11-17T10:51:12.407Z,9.59
2017-11-17T10:52:12.358Z,9.54
2017-11-17T10:53:12.337Z,9.59
2017-11-17T10:54:12.276Z,9.56
2017-11-17T10:55:12.243Z,9.59
2017-11-17T10:56:12.196Z,9.47
2017-11-17T10:57:12.168Z,9.58
2017-11-17T10:58:12.131Z,9.50
2017-11-17T10:59:12.089Z,9.55
2017-11-17T11:00:12.062Z,9.62
2017-11-17T11:01:12.012Z,9.59
2017-11-17T11:02:12.362Z,9.59
2017-11-17T11:03:11.927Z,9.73
2017-11-17T11:04:11.897Z,9.68
2017-11-17T11:05:11.853Z,9.68
2017-11-17T11:06:11.816Z,9.77
2017-11-17T11:07:11.776Z,9.79
2017-11-17T11:08:11.745Z,9.92
2017-11-17T11:09:11.716Z,9.82
2017-11-17T11:10:11.660Z,9.82
2017-11-17T11:11:11.623Z,9.94
2017-11-17T11:12:11.587Z,9.97
2017-11-17T11:13:11.564Z,9.89
2017-11-17T11:14:11.505Z,9.77
2017-11-17T11:15:11.469Z,9.84
2017-11-17T11:16:11.430Z,9.69
2017-11-17T11:17:11.391Z,9.76
2017-11-17T11:18:11.352Z,9.74
2017-11-17T11:19:11.325Z,9.79
2017-11-17T11:20:11.276Z,9.74
2017-11-17T11:21:11.234Z,9.86
2017-11-17T11:22:11.204Z,9.79
2017-11-17T11:23:11.160Z,9.77
2017-11-17T11:24:11.120Z,9.77
2017-11-17T11:25:11.082Z,9.79
2017-11-17T11:26:11.042Z,9.84
2017-11-17T11:27:11.016Z,9.87
2017-11-17T11:28:10.976Z,9.82
2017-11-17T11:29:10.930Z,9.83
2017-11-17T11:30:10.891Z,9.86
2017-11-17T11:31:10.853Z,9.77
2017-11-17T11:32:10.816Z,9.77
2017-11-17T11:33:10.777Z,9.86
2017-11-17T11:34:10.748Z,9.69
2017-11-17T11:35:10.711Z,9.87
2017-11-17T11:36:10.663Z,9.83
2017-11-17T11:37:10.631Z,9.77
2017-11-17T11:38:10.598Z,9.82
2017-11-17T11:39:10.547Z,9.79
2017-11-17T11:40:10.511Z,9.89
2017-11-17T11:41:10.471Z,9.92
2017-11-17T11:42:10.433Z,9.83
2017-11-17T11:43:10.400Z,9.91
2017-11-17T11:44:10.357Z,9.76
2017-11-17T11:45:10.319Z,9.94
2017-11-17T11:46:10.278Z,10.04
2017-11-17T11:47:10.242Z,10.04
2017-11-17T11:48:11.765Z,10.09
2017-11-17T11:49:10.170Z,10.04
2017-11-17T11:50:10.128Z,9.94
2017-11-17T11:51:10.096Z,9.98
2017-11-17T11:52:10.052Z,10.02
2017-11-17T11:53:10.006Z,9.98
2017-11-17T11:54:09.970Z,10.02
2017-11-17T11:55:09.943Z,9.95
2017-11-17T11:56:09.895Z,9.94
2017-11-17T11:57:10.764Z,9.91
2017-11-17T11:58:09.817Z,9.92
2017-11-17T11:59:09.780Z,9.89
2017-11-17T12:00:09.748Z,9.94
2017-11-17T12:01:09.727Z,9.89
2017-11-17T12:02:09.665Z,9.91
2017-11-17T12:03:09.646Z,9.83
2017-11-17T12:04:09.590Z,9.83
2017-11-17T12:05:09.571Z,9.80
2017-11-17T12:06:09.517Z,9.76
2017-11-17T12:07:09.496Z,9.79
2017-11-17T12:08:09.459Z,9.77
2017-11-17T12:09:09.421Z,9.79
2017-11-17T12:10:09.365Z,9.80
2017-11-17T12:11:09.323Z,9.82
2017-11-17T12:12:09.303Z,9.86
2017-11-17T12:13:09.245Z,9.77
2017-11-17T12:14:09.205Z,9.82
2017-11-17T12:15:09.170Z,9.91
2017-11-17T12:16:09.139Z,9.97
2017-11-17T12:17:09.095Z,9.95
2017-11-17T12:18:09.063Z,10.05
2017-11-17T12:19:09.020Z,10.04
2017-11-17T12:20:08.973Z,9.98
2017-11-17T12:21:08.955Z,10.05
2017-11-17T12:22:08.898Z,10.01
2017-11-17T12:23:08.859Z,10.12
2017-11-17T12:24:08.829Z,10.04
2017-11-17T12:25:08.783Z,10.02
2017-11-17T12:26:08.745Z,10.05
2017-11-17T12:27:08.708Z,10.01
2017-11-17T12:28:09.378Z,10.13
2017-11-17T12:29:08.629Z,10.04
2017-11-17T12:30:08.590Z,10.04
2017-11-17T12:31:08.553Z,9.99
2017-11-17T12:32:08.528Z,10.12
2017-11-17T12:33:08.485Z,10.13
2017-11-17T12:34:08.447Z,10.12
2017-11-17T12:35:08.400Z,10.09
2017-11-17T12:36:08.360Z,10.09
2017-11-17T12:37:08.321Z,10.05
2017-11-17T12:38:08.291Z,10.02
2017-11-17T12:39:08.248Z,10.10
2017-11-17T12:40:08.215Z,10.02
2017-11-17T12:41:08.172Z,9.98
2017-11-17T12:42:08.141Z,9.99
2017-11-17T12:43:08.107Z,10.04
2017-11-17T12:44:08.075Z,10.13
2017-11-17T12:45:08.026Z,10.13
2017-11-17T12:46:07.987Z,10.07
2017-11-17T12:47:07.943Z,10.10
2017-11-17T12:48:07.900Z,10.10
2017-11-17T12:49:07.877Z,10.10
2017-11-17T12:50:07.846Z,10.05
2017-11-17T12:51:07.811Z,10.10
2017-11-17T12:52:07.754Z,10.05
2017-11-17T12:53:07.719Z,10.01
2017-11-17T12:54:07.670Z,10.09
2017-11-17T12:55:07.646Z,10.12
2017-11-17T12:56:07.595Z,10.15
2017-11-17T12:57:07.557Z,10.07
2017-11-17T12:58:07.519Z,10.09
2017-11-17T12:59:07.496Z,10.13
2017-11-17T13:00:07.451Z,10.10
2017-11-17T13:01:07.404Z,10.19
2017-11-17T13:02:07.366Z,10.09
2017-11-17T13:03:07.337Z,10.12
2017-11-17T13:04:07.292Z,10.05
2017-11-17T13:05:07.262Z,10.04
2017-11-17T13:06:07.237Z,10.07
2017-11-17T13:07:07.176Z,10.09
2017-11-17T13:08:07.135Z,10.19
2017-11-17T13:09:07.122Z,10.22
2017-11-17T13:10:07.105Z,10.22
2017-11-17T13:11:07.048Z,10.17
2017-11-17T13:12:06.995Z,10.17
2017-11-17T13:13:06.982Z,10.25
2017-11-17T13:14:06.915Z,10.23
2017-11-17T13:15:06.869Z,10.22
2017-11-17T13:16:06.880Z,10.20